sensor_id;sensor_type;location;lat;lon;timestamp;pressure;altitude;pressure_sealevel;temperature;humidity
53300;BME280;39187;48.476;8.310;2023-02-13T00:00:33;92863.91;;;0.53;100.00
53300;BME280;39187;48.476;8.310;2023-02-13T00:02:59;92866.97;;;0.72;100.00
53300;BME280;39187;48.476;8.310;2023-02-13T00:05:24;92859.63;;;0.57;100.00
53300;BME280;39187;48.476;8.310;2023-02-13T00:07:50;92862.84;;;0.54;100.00
53300;BME280;39187;48.476;8.310;2023-02-13T00:10:16;92858.50;;;0.75;100.00
53300;BME280;39187;48.476;8.310;2023-02-13T00:12:41;92857.75;;;0.57;100.00
53300;BME280;39187;48.476;8.310;2023-02-13T00:15:08;92855.91;;;0.49;100.00
53300;BME280;39187;48.476;8.310;2023-02-13T00:17:34;92855.06;;;0.92;100.00
53300;BME280;39187;48.476;8.310;2023-02-13T00:20:00;92852.78;;;0.73;100.00
53300;BME280;39187;48.476;8.310;2023-02-13T00:22:25;92855.56;;;0.68;100.00
53300;BME280;39187;48.476;8.310;2023-02-13T00:24:51;92857.84;;;0.87;100.00
53300;BME280;39187;48.476;8.310;2023-02-13T00:27:17;92847.84;;;0.80;100.00
53300;BME280;39187;48.476;8.310;2023-02-13T00:29:42;92854.34;;;0.65;100.00
53300;BME280;39187;48.476;8.310;2023-02-13T00:32:08;92851.25;;;0.72;100.00
53300;BME280;39187;48.476;8.310;2023-02-13T00:34:34;92852.59;;;0.95;100.00
53300;BME280;39187;48.476;8.310;2023-02-13T00:36:59;92854.00;;;0.84;100.00
53300;BME280;39187;48.476;8.310;2023-02-13T00:39:25;92852.06;;;1.10;100.00
53300;BME280;39187;48.476;8.310;2023-02-13T00:41:50;92854.09;;;1.05;100.00
53300;BME280;39187;48.476;8.310;2023-02-13T00:44:16;92856.47;;;0.89;100.00
53300;BME280;39187;48.476;8.310;2023-02-13T00:46:42;92848.53;;;1.15;100.00
53300;BME280;39187;48.476;8.310;2023-02-13T00:49:08;92855.50;;;1.02;100.00
53300;BME280;39187;48.476;8.310;2023-02-13T00:51:33;92859.94;;;1.10;100.00
53300;BME280;39187;48.476;8.310;2023-02-13T00:53:59;92860.66;;;0.82;100.00
53300;BME280;39187;48.476;8.310;2023-02-13T00:56:25;92849.31;;;0.98;100.00
53300;BME280;39187;48.476;8.310;2023-02-13T00:58:51;92852.47;;;0.74;100.00
53300;BME280;39187;48.476;8.310;2023-02-13T01:01:16;92856.38;;;0.43;100.00
53300;BME280;39187;48.476;8.310;2023-02-13T01:03:42;92851.06;;;0.77;100.00
53300;BME280;39187;48.476;8.310;2023-02-13T01:06:07;92857.91;;;0.69;100.00
53300;BME280;39187;48.476;8.310;2023-02-13T01:08:33;92867.44;;;0.65;100.00
53300;BME280;39187;48.476;8.310;2023-02-13T01:10:59;92860.19;;;0.79;100.00
53300;BME280;39187;48.476;8.310;2023-02-13T01:13:25;92859.41;;;0.79;100.00
53300;BME280;39187;48.476;8.310;2023-02-13T01:15:50;92856.66;;;0.75;100.00
53300;BME280;39187;48.476;8.310;2023-02-13T01:18:18;92859.53;;;0.91;100.00
53300;BME280;39187;48.476;8.310;2023-02-13T01:20:44;92856.13;;;0.91;100.00
53300;BME280;39187;48.476;8.310;2023-02-13T01:23:11;92852.66;;;0.69;100.00
53300;BME280;39187;48.476;8.310;2023-02-13T01:25:40;92854.22;;;0.27;100.00
53300;BME280;39187;48.476;8.310;2023-02-13T01:28:06;92860.81;;;0.59;100.00
53300;BME280;39187;48.476;8.310;2023-02-13T01:30:32;92854.34;;;0.74;100.00
53300;BME280;39187;48.476;8.310;2023-02-13T01:32:58;92857.28;;;0.64;100.00
53300;BME280;39187;48.476;8.310;2023-02-13T01:35:23;92847.44;;;0.35;100.00
53300;BME280;39187;48.476;8.310;2023-02-13T01:37:49;92849.47;;;0.38;100.00
53300;BME280;39187;48.476;8.310;2023-02-13T01:40:14;92841.41;;;0.60;100.00
53300;BME280;39187;48.476;8.310;2023-02-13T01:42:41;92847.72;;;0.68;100.00
53300;BME280;39187;48.476;8.310;2023-02-13T01:45:26;92851.91;;;0.34;100.00
53300;BME280;39187;48.476;8.310;2023-02-13T01:47:57;92850.81;;;0.61;100.00
53300;BME280;39187;48.476;8.310;2023-02-13T01:50:36;92852.50;;;0.66;100.00
53300;BME280;39187;48.476;8.310;2023-02-13T01:53:26;92846.94;;;0.59;100.00
53300;BME280;39187;48.476;8.310;2023-02-13T01:56:05;92849.13;;;0.48;100.00
53300;BME280;39187;48.476;8.310;2023-02-13T01:58:35;92843.91;;;0.39;100.00
53300;BME280;39187;48.476;8.310;2023-02-13T02:01:02;92845.75;;;0.56;100.00
53300;BME280;39187;48.476;8.310;2023-02-13T02:03:40;92843.91;;;0.57;100.00
53300;BME280;39187;48.476;8.310;2023-02-13T02:06:15;92849.41;;;0.72;100.00
53300;BME280;39187;48.476;8.310;2023-02-13T02:08:42;92842.31;;;0.73;100.00
53300;BME280;39187;48.476;8.310;2023-02-13T02:11:41;92842.44;;;0.85;100.00
53300;BME280;39187;48.476;8.310;2023-02-13T02:14:02;92842.59;;;0.89;100.00
53300;BME280;39187;48.476;8.310;2023-02-13T02:16:28;92832.22;;;1.01;100.00
53300;BME280;39187;48.476;8.310;2023-02-13T02:18:55;92834.38;;;0.99;100.00
53300;BME280;39187;48.476;8.310;2023-02-13T02:25:01;92829.13;;;0.99;100.00
53300;BME280;39187;48.476;8.310;2023-02-13T02:27:38;92840.88;;;0.93;100.00
53300;BME280;39187;48.476;8.310;2023-02-13T02:32:59;92834.31;;;0.69;100.00
53300;BME280;39187;48.476;8.310;2023-02-13T02:35:33;92829.50;;;0.71;100.00
53300;BME280;39187;48.476;8.310;2023-02-13T02:41:04;92825.44;;;0.91;100.00
53300;BME280;39187;48.476;8.310;2023-02-13T02:43:53;92835.34;;;0.77;100.00
53300;BME280;39187;48.476;8.310;2023-02-13T02:46:38;92826.75;;;0.76;100.00
53300;BME280;39187;48.476;8.310;2023-02-13T02:49:30;92830.28;;;0.72;100.00
53300;BME280;39187;48.476;8.310;2023-02-13T02:52:28;92834.38;;;0.90;100.00
53300;BME280;39187;48.476;8.310;2023-02-13T02:55:19;92831.78;;;0.90;100.00
53300;BME280;39187;48.476;8.310;2023-02-13T02:58:00;92843.31;;;0.98;100.00
53300;BME280;39187;48.476;8.310;2023-02-13T03:00:48;92830.66;;;1.08;100.00
53300;BME280;39187;48.476;8.310;2023-02-13T03:03:33;92827.94;;;0.88;100.00
53300;BME280;39187;48.476;8.310;2023-02-13T03:06:58;92829.00;;;0.87;100.00
53300;BME280;39187;48.476;8.310;2023-02-13T03:09:31;92820.91;;;1.09;100.00
53300;BME280;39187;48.476;8.310;2023-02-13T03:12:18;92831.84;;;1.11;100.00
53300;BME280;39187;48.476;8.310;2023-02-13T03:15:04;92828.28;;;1.15;100.00
53300;BME280;39187;48.476;8.310;2023-02-13T03:17:30;92834.94;;;0.66;100.00
53300;BME280;39187;48.476;8.310;2023-02-13T03:23:52;92838.41;;;0.88;100.00
53300;BME280;39187;48.476;8.310;2023-02-13T03:26:52;92838.13;;;0.89;100.00
53300;BME280;39187;48.476;8.310;2023-02-13T03:32:35;92837.47;;;1.01;100.00
53300;BME280;39187;48.476;8.310;2023-02-13T03:35:19;92838.91;;;0.81;100.00
53300;BME280;39187;48.476;8.310;2023-02-13T03:38:22;92843.84;;;0.83;100.00
53300;BME280;39187;48.476;8.310;2023-02-13T03:41:03;92843.78;;;0.91;100.00
53300;BME280;39187;48.476;8.310;2023-02-13T03:46:20;92835.44;;;0.98;100.00
53300;BME280;39187;48.476;8.310;2023-02-13T03:48:46;92835.66;;;1.22;100.00
53300;BME280;39187;48.476;8.310;2023-02-13T03:51:39;92840.97;;;1.13;100.00
53300;BME280;39187;48.476;8.310;2023-02-13T03:54:21;92842.78;;;1.22;100.00
53300;BME280;39187;48.476;8.310;2023-02-13T03:57:07;92842.13;;;1.33;100.00
53300;BME280;39187;48.476;8.310;2023-02-13T03:59:52;92846.63;;;1.15;100.00
53300;BME280;39187;48.476;8.310;2023-02-13T04:02:23;92850.66;;;1.22;100.00
53300;BME280;39187;48.476;8.310;2023-02-13T04:05:12;92846.13;;;1.31;100.00
53300;BME280;39187;48.476;8.310;2023-02-13T04:07:40;92852.91;;;1.32;100.00
53300;BME280;39187;48.476;8.310;2023-02-13T04:10:08;92853.72;;;1.24;100.00
53300;BME280;39187;48.476;8.310;2023-02-13T04:13:48;92857.78;;;1.12;100.00
53300;BME280;39187;48.476;8.310;2023-02-13T04:15:46;92858.22;;;1.14;100.00
53300;BME280;39187;48.476;8.310;2023-02-13T04:18:20;92857.09;;;1.24;100.00
53300;BME280;39187;48.476;8.310;2023-02-13T04:20:47;92857.66;;;1.38;100.00
53300;BME280;39187;48.476;8.310;2023-02-13T04:23:12;92856.53;;;1.48;100.00
53300;BME280;39187;48.476;8.310;2023-02-13T04:25:41;92862.72;;;1.14;100.00
53300;BME280;39187;48.476;8.310;2023-02-13T04:28:07;92867.69;;;1.36;100.00
53300;BME280;39187;48.476;8.310;2023-02-13T04:30:33;92860.00;;;1.31;100.00
53300;BME280;39187;48.476;8.310;2023-02-13T04:32:59;92868.00;;;1.35;100.00
53300;BME280;39187;48.476;8.310;2023-02-13T04:35:24;92872.63;;;1.38;100.00
53300;BME280;39187;48.476;8.310;2023-02-13T04:37:50;92875.84;;;1.43;100.00
53300;BME280;39187;48.476;8.310;2023-02-13T04:40:16;92878.72;;;1.21;100.00
53300;BME280;39187;48.476;8.310;2023-02-13T04:42:41;92869.13;;;1.34;100.00
53300;BME280;39187;48.476;8.310;2023-02-13T04:45:07;92872.91;;;1.45;100.00
53300;BME280;39187;48.476;8.310;2023-02-13T04:47:33;92867.50;;;1.41;100.00
53300;BME280;39187;48.476;8.310;2023-02-13T04:49:58;92865.75;;;1.25;100.00
53300;BME280;39187;48.476;8.310;2023-02-13T04:52:23;92872.38;;;1.22;100.00
53300;BME280;39187;48.476;8.310;2023-02-13T04:54:49;92874.03;;;1.35;100.00
53300;BME280;39187;48.476;8.310;2023-02-13T04:57:15;92863.97;;;1.46;100.00
53300;BME280;39187;48.476;8.310;2023-02-13T04:59:40;92866.59;;;1.46;100.00
53300;BME280;39187;48.476;8.310;2023-02-13T05:02:06;92866.78;;;1.41;100.00
53300;BME280;39187;48.476;8.310;2023-02-13T05:04:32;92862.63;;;1.31;100.00
53300;BME280;39187;48.476;8.310;2023-02-13T05:06:57;92867.34;;;1.46;100.00
53300;BME280;39187;48.476;8.310;2023-02-13T05:09:23;92865.50;;;1.47;100.00
53300;BME280;39187;48.476;8.310;2023-02-13T05:11:52;92856.28;;;1.41;100.00
53300;BME280;39187;48.476;8.310;2023-02-13T05:14:18;92859.41;;;1.34;100.00
53300;BME280;39187;48.476;8.310;2023-02-13T05:16:44;92855.66;;;1.35;100.00
53300;BME280;39187;48.476;8.310;2023-02-13T05:19:10;92853.31;;;1.42;100.00
53300;BME280;39187;48.476;8.310;2023-02-13T05:21:35;92859.78;;;1.45;100.00
53300;BME280;39187;48.476;8.310;2023-02-13T05:24:19;92862.25;;;1.41;100.00
53300;BME280;39187;48.476;8.310;2023-02-13T05:26:45;92859.41;;;1.34;100.00
53300;BME280;39187;48.476;8.310;2023-02-13T05:29:10;92856.59;;;1.39;100.00
53300;BME280;39187;48.476;8.310;2023-02-13T05:31:51;92847.94;;;1.39;100.00
53300;BME280;39187;48.476;8.310;2023-02-13T05:34:18;92853.38;;;1.34;100.00
53300;BME280;39187;48.476;8.310;2023-02-13T05:36:44;92848.53;;;1.15;100.00
53300;BME280;39187;48.476;8.310;2023-02-13T05:39:10;92849.41;;;1.19;100.00
53300;BME280;39187;48.476;8.310;2023-02-13T05:41:35;92844.78;;;1.16;100.00
53300;BME280;39187;48.476;8.310;2023-02-13T05:44:01;92851.56;;;1.26;100.00
53300;BME280;39187;48.476;8.310;2023-02-13T05:46:26;92853.66;;;1.41;100.00
53300;BME280;39187;48.476;8.310;2023-02-13T05:48:52;92843.00;;;1.37;100.00
53300;BME280;39187;48.476;8.310;2023-02-13T05:51:18;92843.50;;;1.31;100.00
53300;BME280;39187;48.476;8.310;2023-02-13T05:53:44;92838.50;;;1.46;100.00
53300;BME280;39187;48.476;8.310;2023-02-13T05:56:09;92838.63;;;1.50;100.00
53300;BME280;39187;48.476;8.310;2023-02-13T05:58:35;92832.28;;;1.51;100.00
53300;BME280;39187;48.476;8.310;2023-02-13T06:01:01;92836.88;;;1.33;100.00
53300;BME280;39187;48.476;8.310;2023-02-13T06:03:30;92838.13;;;1.27;100.00
53300;BME280;39187;48.476;8.310;2023-02-13T06:05:56;92844.34;;;1.52;100.00
53300;BME280;39187;48.476;8.310;2023-02-13T06:08:23;92844.53;;;1.68;100.00
53300;BME280;39187;48.476;8.310;2023-02-13T06:10:49;92840.16;;;1.51;100.00
53300;BME280;39187;48.476;8.310;2023-02-13T06:13:15;92847.13;;;1.76;100.00
53300;BME280;39187;48.476;8.310;2023-02-13T06:15:41;92842.13;;;1.83;100.00
53300;BME280;39187;48.476;8.310;2023-02-13T06:18:07;92847.00;;;1.73;100.00
53300;BME280;39187;48.476;8.310;2023-02-13T06:20:34;92847.00;;;1.73;100.00
53300;BME280;39187;48.476;8.310;2023-02-13T06:22:59;92838.34;;;1.93;100.00
53300;BME280;39187;48.476;8.310;2023-02-13T06:25:25;92838.03;;;1.94;100.00
53300;BME280;39187;48.476;8.310;2023-02-13T06:27:51;92841.56;;;1.98;100.00
53300;BME280;39187;48.476;8.310;2023-02-13T06:30:17;92836.13;;;2.04;100.00
53300;BME280;39187;48.476;8.310;2023-02-13T06:32:45;92834.84;;;2.10;100.00
53300;BME280;39187;48.476;8.310;2023-02-13T06:35:11;92839.03;;;2.11;100.00
53300;BME280;39187;48.476;8.310;2023-02-13T06:37:36;92833.06;;;2.22;100.00
53300;BME280;39187;48.476;8.310;2023-02-13T06:40:07;92833.75;;;2.31;100.00
53300;BME280;39187;48.476;8.310;2023-02-13T06:42:33;92841.88;;;2.38;100.00
53300;BME280;39187;48.476;8.310;2023-02-13T06:44:58;92841.41;;;2.57;100.00
53300;BME280;39187;48.476;8.310;2023-02-13T06:47:24;92843.53;;;2.76;100.00
53300;BME280;39187;48.476;8.310;2023-02-13T06:49:49;92841.53;;;2.94;100.00
53300;BME280;39187;48.476;8.310;2023-02-13T06:52:15;92844.19;;;3.18;100.00
53300;BME280;39187;48.476;8.310;2023-02-13T06:54:41;92837.09;;;3.43;99.12
53300;BME280;39187;48.476;8.310;2023-02-13T06:57:06;92840.81;;;3.54;98.60
53300;BME280;39187;48.476;8.310;2023-02-13T06:59:32;92840.22;;;3.97;99.53
53300;BME280;39187;48.476;8.310;2023-02-13T07:01:57;92841.38;;;4.24;97.11
53300;BME280;39187;48.476;8.310;2023-02-13T07:04:23;92840.41;;;4.56;97.65
53300;BME280;39187;48.476;8.310;2023-02-13T07:06:49;92847.72;;;4.91;93.91
53300;BME280;39187;48.476;8.310;2023-02-13T07:09:14;92841.53;;;5.14;90.92
53300;BME280;39187;48.476;8.310;2023-02-13T07:11:41;92849.41;;;5.42;86.95
53300;BME280;39187;48.476;8.310;2023-02-13T07:14:07;92853.91;;;5.73;83.48
53300;BME280;39187;48.476;8.310;2023-02-13T07:16:33;92852.34;;;6.19;82.37
53300;BME280;39187;48.476;8.310;2023-02-13T07:18:59;92846.50;;;6.49;80.31
53300;BME280;39187;48.476;8.310;2023-02-13T07:21:24;92858.41;;;6.04;75.58
53300;BME280;39187;48.476;8.310;2023-02-13T07:23:51;92850.00;;;6.53;77.21
53300;BME280;39187;48.476;8.310;2023-02-13T07:26:17;92859.88;;;6.94;75.60
53300;BME280;39187;48.476;8.310;2023-02-13T07:28:42;92861.41;;;7.14;72.84
53300;BME280;39187;48.476;8.310;2023-02-13T07:31:08;92861.47;;;7.63;68.58
53300;BME280;39187;48.476;8.310;2023-02-13T07:33:34;92849.94;;;7.52;65.62
53300;BME280;39187;48.476;8.310;2023-02-13T07:36:00;92854.84;;;7.99;68.61
53300;BME280;39187;48.476;8.310;2023-02-13T07:38:29;92863.88;;;8.48;65.90
53300;BME280;39187;48.476;8.310;2023-02-13T07:40:58;92851.03;;;8.23;63.50
53300;BME280;39187;48.476;8.310;2023-02-13T07:43:24;92855.56;;;8.23;60.30
53300;BME280;39187;48.476;8.310;2023-02-13T07:45:49;92861.19;;;8.74;62.06
53300;BME280;39187;48.476;8.310;2023-02-13T07:48:22;92855.09;;;8.70;59.17
53300;BME280;39187;48.476;8.310;2023-02-13T07:50:48;92869.03;;;9.30;60.28
53300;BME280;39187;48.476;8.310;2023-02-13T07:53:14;92868.22;;;9.63;58.67
53300;BME280;39187;48.476;8.310;2023-02-13T07:55:39;92870.28;;;9.84;57.38
53300;BME280;39187;48.476;8.310;2023-02-13T07:58:05;92862.88;;;9.22;58.33
53300;BME280;39187;48.476;8.310;2023-02-13T08:00:30;92870.72;;;9.93;57.12
53300;BME280;39187;48.476;8.310;2023-02-13T08:03:00;92872.66;;;9.96;55.82
53300;BME280;39187;48.476;8.310;2023-02-13T08:05:26;92865.88;;;10.05;54.23
53300;BME280;39187;48.476;8.310;2023-02-13T08:07:52;92868.06;;;10.44;54.15
53300;BME280;39187;48.476;8.310;2023-02-13T08:10:18;92865.22;;;10.77;53.68
53300;BME280;39187;48.476;8.310;2023-02-13T08:13:03;92864.28;;;11.24;51.40
53300;BME280;39187;48.476;8.310;2023-02-13T08:15:29;92859.81;;;11.71;50.50
53300;BME280;39187;48.476;8.310;2023-02-13T08:17:55;92867.41;;;11.65;50.58
53300;BME280;39187;48.476;8.310;2023-02-13T08:20:21;92859.06;;;11.81;49.59
53300;BME280;39187;48.476;8.310;2023-02-13T08:22:48;92865.53;;;12.30;49.11
53300;BME280;39187;48.476;8.310;2023-02-13T08:25:14;92864.03;;;12.29;48.88
53300;BME280;39187;48.476;8.310;2023-02-13T08:27:39;92858.31;;;12.34;48.18
53300;BME280;39187;48.476;8.310;2023-02-13T08:30:05;92865.56;;;12.16;49.20
53300;BME280;39187;48.476;8.310;2023-02-13T08:32:31;92861.66;;;12.73;49.91
53300;BME280;39187;48.476;8.310;2023-02-13T08:34:57;92860.88;;;12.80;48.88
53300;BME280;39187;48.476;8.310;2023-02-13T08:37:22;92865.44;;;12.87;48.64
53300;BME280;39187;48.476;8.310;2023-02-13T08:39:48;92860.00;;;13.18;48.17
53300;BME280;39187;48.476;8.310;2023-02-13T08:42:14;92860.41;;;13.17;48.30
53300;BME280;39187;48.476;8.310;2023-02-13T08:44:40;92858.34;;;13.46;48.14
53300;BME280;39187;48.476;8.310;2023-02-13T08:47:07;92860.88;;;12.83;46.90
53300;BME280;39187;48.476;8.310;2023-02-13T08:49:33;92856.97;;;13.02;47.47
53300;BME280;39187;48.476;8.310;2023-02-13T08:51:59;92856.53;;;13.25;48.29
53300;BME280;39187;48.476;8.310;2023-02-13T08:54:25;92855.69;;;13.42;48.09
53300;BME280;39187;48.476;8.310;2023-02-13T08:56:52;92853.75;;;13.50;47.80
53300;BME280;39187;48.476;8.310;2023-02-13T08:59:18;92863.59;;;13.60;47.70
53300;BME280;39187;48.476;8.310;2023-02-13T09:01:44;92865.53;;;13.59;47.97
53300;BME280;39187;48.476;8.310;2023-02-13T09:04:09;92867.72;;;13.75;47.26
53300;BME280;39187;48.476;8.310;2023-02-13T09:06:35;92870.75;;;13.77;47.15
53300;BME280;39187;48.476;8.310;2023-02-13T09:09:00;92869.19;;;13.83;46.06
53300;BME280;39187;48.476;8.310;2023-02-13T09:11:26;92862.34;;;13.82;46.64
53300;BME280;39187;48.476;8.310;2023-02-13T09:13:52;92864.56;;;13.91;46.60
53300;BME280;39187;48.476;8.310;2023-02-13T09:16:18;92861.22;;;13.73;46.90
53300;BME280;39187;48.476;8.310;2023-02-13T09:18:46;92862.34;;;13.79;48.06
53300;BME280;39187;48.476;8.310;2023-02-13T09:21:12;92866.13;;;13.88;48.31
53300;BME280;39187;48.476;8.310;2023-02-13T09:23:39;92864.13;;;13.99;48.43
53300;BME280;39187;48.476;8.310;2023-02-13T09:26:10;92857.66;;;13.93;48.02
53300;BME280;39187;48.476;8.310;2023-02-13T09:28:36;92856.91;;;13.93;48.19
53300;BME280;39187;48.476;8.310;2023-02-13T09:33:35;92853.25;;;13.69;49.47
53300;BME280;39187;48.476;8.310;2023-02-13T09:36:09;92860.06;;;13.77;48.60
53300;BME280;39187;48.476;8.310;2023-02-13T09:38:35;92857.78;;;13.76;47.27
53300;BME280;39187;48.476;8.310;2023-02-13T09:41:12;92858.56;;;13.73;45.67
53300;BME280;39187;48.476;8.310;2023-02-13T09:43:50;92852.16;;;13.59;46.23
53300;BME280;39187;48.476;8.310;2023-02-13T09:46:23;92856.72;;;13.62;45.56
53300;BME280;39187;48.476;8.310;2023-02-13T09:48:53;92855.19;;;13.58;45.39
53300;BME280;39187;48.476;8.310;2023-02-13T09:51:21;92866.97;;;13.75;44.72
53300;BME280;39187;48.476;8.310;2023-02-13T09:53:55;92868.03;;;13.84;44.52
53300;BME280;39187;48.476;8.310;2023-02-13T09:56:50;92863.06;;;13.86;43.94
53300;BME280;39187;48.476;8.310;2023-02-13T09:59:53;92860.09;;;13.74;44.35
53300;BME280;39187;48.476;8.310;2023-02-13T10:05:30;92858.47;;;13.87;44.57
53300;BME280;39187;48.476;8.310;2023-02-13T10:11:29;92857.06;;;13.68;45.87
53300;BME280;39187;48.476;8.310;2023-02-13T10:17:06;92865.06;;;13.72;45.11
53300;BME280;39187;48.476;8.310;2023-02-13T10:22:19;92865.78;;;13.79;43.80
53300;BME280;39187;48.476;8.310;2023-02-13T10:25:14;92863.16;;;13.72;44.81
53300;BME280;39187;48.476;8.310;2023-02-13T10:27:39;92869.22;;;13.80;44.25
53300;BME280;39187;48.476;8.310;2023-02-13T10:30:20;92862.44;;;13.64;43.24
53300;BME280;39187;48.476;8.310;2023-02-13T10:33:10;92864.03;;;13.51;44.05
53300;BME280;39187;48.476;8.310;2023-02-13T10:35:55;92863.38;;;13.30;42.47
53300;BME280;39187;48.476;8.310;2023-02-13T10:38:23;92860.47;;;12.81;42.81
53300;BME280;39187;48.476;8.310;2023-02-13T10:46:39;92853.53;;;13.16;41.26
53300;BME280;39187;48.476;8.310;2023-02-13T10:49:36;92851.72;;;12.74;40.94
53300;BME280;39187;48.476;8.310;2023-02-13T10:57:34;92844.53;;;12.42;41.85
53300;BME280;39187;48.476;8.310;2023-02-13T11:00:26;92843.00;;;12.52;41.77
53300;BME280;39187;48.476;8.310;2023-02-13T11:02:57;92843.84;;;12.03;42.04
53300;BME280;39187;48.476;8.310;2023-02-13T11:05:31;92846.50;;;11.92;42.43
53300;BME280;39187;48.476;8.310;2023-02-13T11:07:58;92841.47;;;11.55;43.05
53300;BME280;39187;48.476;8.310;2023-02-13T11:10:25;92843.03;;;11.63;43.02
53300;BME280;39187;48.476;8.310;2023-02-13T11:12:52;92837.25;;;11.37;42.83
53300;BME280;39187;48.476;8.310;2023-02-13T11:15:38;92839.91;;;11.30;43.25
53300;BME280;39187;48.476;8.310;2023-02-13T11:18:13;92840.31;;;11.53;42.90
53300;BME280;39187;48.476;8.310;2023-02-13T11:20:44;92836.50;;;11.36;43.29
53300;BME280;39187;48.476;8.310;2023-02-13T11:23:25;92838.34;;;11.11;43.35
53300;BME280;39187;48.476;8.310;2023-02-13T11:28:36;92826.50;;;10.94;44.53
53300;BME280;39187;48.476;8.310;2023-02-13T11:31:10;92834.88;;;11.03;44.08
53300;BME280;39187;48.476;8.310;2023-02-13T11:33:36;92832.28;;;11.24;44.29
53300;BME280;39187;48.476;8.310;2023-02-13T11:36:12;92833.31;;;10.92;44.84
53300;BME280;39187;48.476;8.310;2023-02-13T11:38:39;92836.06;;;11.16;45.43
53300;BME280;39187;48.476;8.310;2023-02-13T11:41:11;92828.06;;;11.16;45.72
53300;BME280;39187;48.476;8.310;2023-02-13T11:43:46;92831.41;;;10.81;46.54
53300;BME280;39187;48.476;8.310;2023-02-13T11:48:43;92824.19;;;10.96;47.01
53300;BME280;39187;48.476;8.310;2023-02-13T11:51:20;92831.06;;;10.94;47.00
53300;BME280;39187;48.476;8.310;2023-02-13T11:53:58;92822.25;;;10.82;47.43
53300;BME280;39187;48.476;8.310;2023-02-13T11:56:25;92830.25;;;10.90;48.79
53300;BME280;39187;48.476;8.310;2023-02-13T11:59:00;92833.97;;;10.64;49.39
53300;BME280;39187;48.476;8.310;2023-02-13T12:01:27;92824.50;;;10.77;49.66
53300;BME280;39187;48.476;8.310;2023-02-13T12:06:25;92821.47;;;10.78;50.11
53300;BME280;39187;48.476;8.310;2023-02-13T12:08:51;92822.28;;;10.86;49.56
53300;BME280;39187;48.476;8.310;2023-02-13T12:13:51;92827.16;;;10.77;50.28
53300;BME280;39187;48.476;8.310;2023-02-13T12:16:36;92830.22;;;10.79;54.20
53300;BME280;39187;48.476;8.310;2023-02-13T12:19:09;92828.03;;;10.99;54.63
53300;BME280;39187;48.476;8.310;2023-02-13T12:27:44;92824.25;;;11.14;55.51
53300;BME280;39187;48.476;8.310;2023-02-13T12:30:25;92823.03;;;10.87;56.44
53300;BME280;39187;48.476;8.310;2023-02-13T12:41:20;92823.72;;;10.66;59.21
53300;BME280;39187;48.476;8.310;2023-02-13T12:44:12;92822.94;;;10.65;59.33
53300;BME280;39187;48.476;8.310;2023-02-13T13:00:43;92827.88;;;10.63;59.53
53300;BME280;39187;48.476;8.310;2023-02-13T13:03:22;92835.81;;;10.53;60.36
53300;BME280;39187;48.476;8.310;2023-02-13T13:09:00;92829.81;;;10.70;57.88
53300;BME280;39187;48.476;8.310;2023-02-13T13:14:28;92832.56;;;10.19;57.65
53300;BME280;39187;48.476;8.310;2023-02-13T13:21:12;92826.53;;;10.22;57.46
53300;BME280;39187;48.476;8.310;2023-02-13T13:26:04;92835.31;;;10.33;57.30
53300;BME280;39187;48.476;8.310;2023-02-13T13:28:36;92825.97;;;10.02;58.60
53300;BME280;39187;48.476;8.310;2023-02-13T13:31:02;92820.66;;;9.98;59.47
53300;BME280;39187;48.476;8.310;2023-02-13T13:33:29;92830.94;;;10.03;59.11
53300;BME280;39187;48.476;8.310;2023-02-13T13:36:06;92828.81;;;10.23;58.52
53300;BME280;39187;48.476;8.310;2023-02-13T13:41:21;92827.41;;;9.92;60.66
53300;BME280;39187;48.476;8.310;2023-02-13T13:44:09;92826.16;;;9.72;61.74
53300;BME280;39187;48.476;8.310;2023-02-13T13:46:54;92828.47;;;9.77;62.31
53300;BME280;39187;48.476;8.310;2023-02-13T13:52:18;92823.47;;;9.72;63.20
53300;BME280;39187;48.476;8.310;2023-02-13T13:54:44;92824.03;;;9.99;62.28
53300;BME280;39187;48.476;8.310;2023-02-13T14:00:25;92819.63;;;9.66;64.12
53300;BME280;39187;48.476;8.310;2023-02-13T14:03:12;92822.81;;;9.86;63.62
53300;BME280;39187;48.476;8.310;2023-02-13T14:05:59;92829.19;;;9.74;64.17
53300;BME280;39187;48.476;8.310;2023-02-13T14:11:43;92827.81;;;9.91;63.36
53300;BME280;39187;48.476;8.310;2023-02-13T14:16:52;92827.00;;;9.87;62.77
53300;BME280;39187;48.476;8.310;2023-02-13T14:19:35;92835.72;;;9.84;62.85
53300;BME280;39187;48.476;8.310;2023-02-13T14:22:34;92835.25;;;9.75;63.32
53300;BME280;39187;48.476;8.310;2023-02-13T14:25:06;92830.28;;;9.66;63.60
53300;BME280;39187;48.476;8.310;2023-02-13T14:27:55;92832.31;;;9.83;62.79
53300;BME280;39187;48.476;8.310;2023-02-13T14:32:52;92829.81;;;10.04;61.86
53300;BME280;39187;48.476;8.310;2023-02-13T14:35:30;92835.50;;;10.06;61.79
53300;BME280;39187;48.476;8.310;2023-02-13T14:38:02;92830.13;;;9.99;62.19
53300;BME280;39187;48.476;8.310;2023-02-13T14:40:43;92830.16;;;10.03;62.02
53300;BME280;39187;48.476;8.310;2023-02-13T14:43:46;92828.47;;;9.77;61.54
53300;BME280;39187;48.476;8.310;2023-02-13T14:46:20;92834.84;;;9.69;61.20
53300;BME280;39187;48.476;8.310;2023-02-13T14:51:25;92837.50;;;9.69;60.71
53300;BME280;39187;48.476;8.310;2023-02-13T14:53:58;92833.84;;;9.44;59.65
53300;BME280;39187;48.476;8.310;2023-02-13T14:56:25;92834.69;;;9.51;58.99
53300;BME280;39187;48.476;8.310;2023-02-13T14:58:56;92836.59;;;9.54;58.97
53300;BME280;39187;48.476;8.310;2023-02-13T15:01:31;92832.53;;;9.23;59.13
53300;BME280;39187;48.476;8.310;2023-02-13T15:04:04;92830.72;;;9.35;59.58
53300;BME280;39187;48.476;8.310;2023-02-13T15:06:42;92829.88;;;8.90;60.28
53300;BME280;39187;48.476;8.310;2023-02-13T15:09:21;92828.50;;;9.03;59.89
53300;BME280;39187;48.476;8.310;2023-02-13T15:11:48;92828.59;;;9.10;60.39
53300;BME280;39187;48.476;8.310;2023-02-13T15:14:33;92823.28;;;9.10;60.44
53300;BME280;39187;48.476;8.310;2023-02-13T15:17:18;92821.47;;;8.81;61.28
53300;BME280;39187;48.476;8.310;2023-02-13T15:19:46;92826.19;;;8.98;61.43